Time;durP1;ratioP1;P1;durP2;ratioP2;P2;SDS_P1;SDS_P2;PMS_P1;PMS_P2;Temp;Humidity;BMP_temperature;BMP_pressure;BME280_temperature;BME280_humidity;BME280_pressure;Samples;Min_cycle;Max_cycle;Signal;HPM_P1;HPM_P2
2023/01/14 00:04:02;;;;;;;49.35;28.08;;;;;;;;;;21001886;28;20054;-61
2023/01/14 00:14:04;;;;;;;48.08;29.10;;;;;;;;;;21000459;28;20052;-61
2023/01/14 00:24:06;;;;;;;48.83;29.40;;;;;;;;;;21000305;28;20284;-59
2023/01/14 00:34:09;;;;;;;44.67;29.92;;;;;;;;;;21001784;28;20477;-60
2023/01/14 00:44:11;;;;;;;48.65;28.52;;;;;;;;;;20998855;28;20176;-60
2023/01/14 00:54:13;;;;;;;45.28;29.05;;;;;;;;;;21002752;28;20052;-62
2023/01/14 01:04:17;;;;;;;47.92;30.40;;;;;;;;;;20999721;28;20124;-58
2023/01/14 01:14:19;;;;;;;48.50;30.17;;;;;;;;;;20999658;28;20052;-59
2023/01/14 01:24:21;;;;;;;49.92;30.85;;;;;;;;;;20997084;28;20534;-59
2023/01/14 01:34:26;;;;;;;53.23;31.47;;;;;;;;;;21005795;28;20189;-58
2023/01/14 01:44:35;;;;;;;48.05;30.50;;;;;;;;;;21013109;28;20048;-60
2023/01/14 01:54:52;;;;;;;28.40;17.48;;;;;;;;;;21015252;28;20053;-58
2023/01/14 02:04:54;;;;;;;20.40;12.23;;;;;;;;;;21023083;28;20538;-59
2023/01/14 02:15:10;;;;;;;19.95;12.63;;;;;;;;;;21012048;28;20110;-60
2023/01/14 02:25:25;;;;;;;16.30;11.20;;;;;;;;;;21014835;28;20055;-63
2023/01/14 02:35:31;;;;;;;;;;;;;;;;;;21012395;28;20412;-59
2023/01/14 02:45:48;;;;;;;17.95;12.38;;;;;;;;;;21011955;28;19920;-59
2023/01/14 02:56:11;;;;;;;24.63;12.77;;;;;;;;;;21011656;28;20055;-58
2023/01/14 03:06:33;;;;;;;21.63;14.10;;;;;;;;;;21016527;28;20051;-61
2023/01/14 03:17:20;;;;;;;17.45;12.18;;;;;;;;;;21008986;28;20053;-59
2023/01/14 03:27:35;;;;;;;18.95;12.90;;;;;;;;;;21006411;28;20044;-64
2023/01/14 03:37:57;;;;;;;19.13;11.90;;;;;;;;;;21071735;27;20481;-58
2023/01/14 03:48:16;;;;;;;19.88;13.55;;;;;;;;;;21071731;28;20063;-61
2023/01/14 03:58:37;;;;;;;22.60;14.52;;;;;;;;;;21075460;28;20052;-60
2023/01/14 04:08:59;;;;;;;21.60;13.57;;;;;;;;;;21068833;28;20051;-58
2023/01/14 04:19:09;;;;;;;18.63;12.18;;;;;;;;;;21067351;28;20048;-60
2023/01/14 04:29:17;;;;;;;19.83;11.63;;;;;;;;;;21067739;28;20415;-59
2023/01/14 04:39:38;;;;;;;17.80;11.95;;;;;;;;;;21063752;28;20053;-58
2023/01/14 04:49:54;;;;;;;18.65;12.70;;;;;;;;;;21075922;27;20485;-58
2023/01/14 05:00:03;;;;;;;20.42;13.30;;;;;;;;;;21074652;28;20040;-61
2023/01/14 05:10:14;;;;;;;18.58;12.70;;;;;;;;;;21079852;28;20127;-62
2023/01/14 05:20:36;;;;;;;17.85;12.57;;;;;;;;;;21069470;28;20407;-59
2023/01/14 05:30:52;;;;;;;19.88;13.00;;;;;;;;;;21070862;28;20054;-58
2023/01/14 05:41:02;;;;;;;20.88;12.98;;;;;;;;;;21070881;28;20131;-61
2023/01/14 05:51:12;;;;;;;18.45;12.18;;;;;;;;;;21065908;28;20481;-61
2023/01/14 06:12:04;;;;;;;21.08;13.63;;;;;;;;;;21009344;28;20048;-61
2023/01/14 06:22:07;;;;;;;29.60;17.25;;;;;;;;;;21007003;28;20052;-58
2023/01/14 06:32:10;;;;;;;46.55;30.38;;;;;;;;;;21012304;28;20098;-59
2023/01/14 06:42:25;;;;;;;49.28;29.92;;;;;;;;;;21163233;27;20500;-59
2023/01/14 06:52:28;;;;;;;52.47;31.65;;;;;;;;;;21154919;28;20048;-62
2023/01/14 07:02:31;;;;;;;48.85;29.48;;;;;;;;;;21158999;28;20043;-65
2023/01/14 07:12:33;;;;;;;48.13;27.17;;;;;;;;;;21157522;28;20048;-61
2023/01/14 07:22:39;;;;;;;22.33;14.02;;;;;;;;;;21153660;28;20127;-65
2023/01/14 07:32:41;;;;;;;20.90;12.77;;;;;;;;;;21151746;28;20078;-60
2023/01/14 07:42:43;;;;;;;16.85;11.60;;;;;;;;;;21150846;28;20051;-57
2023/01/14 07:52:52;;;;;;;17.88;10.88;;;;;;;;;;21102324;28;20044;-62
2023/01/14 08:02:56;;;;;;;18.25;11.65;;;;;;;;;;21100052;28;20051;-64
2023/01/14 08:12:59;;;;;;;31.70;13.20;;;;;;;;;;21099623;28;20045;-62
2023/01/14 08:23:01;;;;;;;21.00;12.02;;;;;;;;;;21094535;28;20124;-63
2023/01/14 08:33:04;;;;;;;19.88;11.68;;;;;;;;;;21091432;28;20052;-61
2023/01/14 08:43:06;;;;;;;21.02;12.35;;;;;;;;;;21095232;28;20457;-62
2023/01/14 08:53:09;;;;;;;19.63;12.05;;;;;;;;;;21094075;28;20499;-59
2023/01/14 09:03:12;;;;;;;22.52;14.45;;;;;;;;;;21088165;28;20495;-58
2023/01/14 09:23:37;;;;;;;44.40;28.88;;;;;;;;;;21090337;28;20056;-63
2023/01/14 09:33:39;;;;;;;34.78;23.85;;;;;;;;;;21096503;28;20457;-66
2023/01/14 09:43:41;;;;;;;43.95;26.33;;;;;;;;;;21093334;28;20055;-62
2023/01/14 09:53:54;;;;;;;38.65;23.92;;;;;;;;;;21092090;28;20138;-66
2023/01/14 10:04:17;;;;;;;31.63;22.35;;;;;;;;;;21086576;28;20480;-59
2023/01/14 10:14:21;;;;;;;35.78;22.30;;;;;;;;;;20744535;28;20045;-59
2023/01/14 10:24:24;;;;;;;29.30;20.80;;;;;;;;;;20746634;28;20045;-61
2023/01/14 10:34:32;;;;;;;31.52;19.42;;;;;;;;;;20753077;28;20514;-62
2023/01/14 10:44:37;;;;;;;30.50;19.40;;;;;;;;;;20824741;28;20112;-62
2023/01/14 10:54:55;;;;;;;35.75;21.98;;;;;;;;;;21091558;28;20059;-60
2023/01/14 11:04:58;;;;;;;36.38;23.65;;;;;;;;;;21087522;28;20540;-58
2023/01/14 11:15:00;;;;;;;35.92;21.73;;;;;;;;;;21085738;28;20060;-61
2023/01/14 11:25:03;;;;;;;41.95;21.70;;;;;;;;;;21091714;28;20078;-61
2023/01/14 11:35:09;;;;;;;27.83;17.88;;;;;;;;;;21092033;28;20060;-61
2023/01/14 11:45:12;;;;;;;26.20;17.00;;;;;;;;;;21091429;28;20048;-63
2023/01/14 11:55:16;;;;;;;26.73;17.20;;;;;;;;;;21091216;28;20055;-63
2023/01/14 12:05:21;;;;;;;37.00;20.27;;;;;;;;;;21090084;28;20040;-61
2023/01/14 12:25:50;;;;;;;38.97;24.50;;;;;;;;;;21087195;28;20131;-61
2023/01/14 12:36:14;;;;;;;33.58;22.08;;;;;;;;;;21086092;28;20059;-60
2023/01/14 12:46:16;;;;;;;35.85;22.60;;;;;;;;;;21085868;28;20048;-61
2023/01/14 12:56:28;;;;;;;35.88;22.88;;;;;;;;;;21085069;28;20135;-59
2023/01/14 13:06:33;;;;;;;43.95;28.67;;;;;;;;;;21085675;28;20062;-62
2023/01/14 13:16:37;;;;;;;41.87;28.30;;;;;;;;;;21085133;28;20051;-60
2023/01/14 13:26:39;;;;;;;43.57;29.53;;;;;;;;;;21066246;28;20381;-60
2023/01/14 13:36:42;;;;;;;47.85;30.88;;;;;;;;;;21082600;28;20052;-59
2023/01/14 13:46:47;;;;;;;50.45;34.90;;;;;;;;;;21081963;28;20498;-60
2023/01/14 13:56:49;;;;;;;;;;;;;;;;;;21081827;28;20093;-62
2023/01/14 14:06:51;;;;;;;45.95;31.98;;;;;;;;;;21082193;28;20363;-64
2023/01/14 14:17:02;;;;;;;48.33;31.83;;;;;;;;;;21081309;28;20408;-58
2023/01/14 14:27:06;;;;;;;50.55;30.73;;;;;;;;;;21080975;28;20048;-62
2023/01/14 14:37:19;;;;;;;48.80;31.30;;;;;;;;;;21078959;28;20048;-61
2023/01/14 14:47:23;;;;;;;47.88;30.60;;;;;;;;;;21078938;28;20178;-64
2023/01/14 14:57:28;;;;;;;48.85;30.48;;;;;;;;;;21085333;28;20384;-59
2023/01/14 15:07:33;;;;;;;54.03;35.08;;;;;;;;;;21097050;28;20044;-59
2023/01/14 15:17:36;;;;;;;50.38;32.38;;;;;;;;;;21094096;28;20059;-64
2023/01/14 15:27:39;;;;;;;53.80;32.25;;;;;;;;;;21093362;28;20484;-58
2023/01/14 15:37:42;;;;;;;50.67;30.52;;;;;;;;;;21091662;28;20052;-61
2023/01/14 15:47:45;;;;;;;47.00;29.65;;;;;;;;;;21093089;28;20495;-60
2023/01/14 15:57:48;;;;;;;37.25;23.58;;;;;;;;;;21072974;28;20052;-62
2023/01/14 16:07:50;;;;;;;39.95;25.58;;;;;;;;;;21088867;28;20055;-61
2023/01/14 16:18:02;;;;;;;39.47;25.65;;;;;;;;;;21089258;28;20044;-59
2023/01/14 16:28:04;;;;;;;35.83;25.10;;;;;;;;;;21088492;28;20131;-59
2023/01/14 16:38:08;;;;;;;38.65;25.70;;;;;;;;;;21087555;28;20147;-59
2023/01/14 16:48:10;;;;;;;37.33;25.27;;;;;;;;;;21087647;28;20135;-64
2023/01/14 16:58:12;;;;;;;44.90;27.23;;;;;;;;;;21086536;28;20044;-57
2023/01/14 17:08:14;;;;;;;38.45;24.88;;;;;;;;;;21086833;28;20043;-58
2023/01/14 17:18:16;;;;;;;44.15;27.08;;;;;;;;;;21082798;28;20086;-60
2023/01/14 17:28:18;;;;;;;45.05;28.00;;;;;;;;;;21084730;28;20397;-58
2023/01/14 17:38:21;;;;;;;51.17;30.38;;;;;;;;;;21083486;28;20063;-58
2023/01/14 17:48:23;;;;;;;49.40;31.95;;;;;;;;;;21081898;28;20052;-58
2023/01/14 17:58:25;;;;;;;54.15;34.35;;;;;;;;;;21082012;28;20048;-58
2023/01/14 18:08:27;;;;;;;84.25;45.97;;;;;;;;;;21081717;28;20040;-57
2023/01/14 18:18:29;;;;;;;67.53;42.63;;;;;;;;;;21078915;28;20052;-59
2023/01/14 18:28:33;;;;;;;65.13;40.65;;;;;;;;;;21079584;28;20154;-59
2023/01/14 18:38:36;;;;;;;76.10;44.33;;;;;;;;;;21079214;28;20056;-59
2023/01/14 18:48:38;;;;;;;76.80;44.95;;;;;;;;;;21080282;28;20051;-62
2023/01/14 18:58:40;;;;;;;77.22;48.15;;;;;;;;;;21079775;28;20416;-60
2023/01/14 19:08:43;;;;;;;70.40;44.17;;;;;;;;;;21078237;28;20044;-60
2023/01/14 19:18:45;;;;;;;72.45;45.03;;;;;;;;;;21077031;28;20076;-61
2023/01/14 19:28:48;;;;;;;74.20;46.50;;;;;;;;;;21077345;28;20105;-65
2023/01/14 19:38:50;;;;;;;73.60;46.38;;;;;;;;;;21076798;28;20056;-61
2023/01/14 19:48:52;;;;;;;78.47;51.55;;;;;;;;;;21090671;28;20044;-63
2023/01/14 19:58:58;;;;;;;80.80;50.58;;;;;;;;;;21074174;28;20101;-63
2023/01/14 20:09:01;;;;;;;78.80;48.63;;;;;;;;;;21091371;28;20089;-60
2023/01/14 20:19:03;;;;;;;80.82;46.72;;;;;;;;;;21091104;28;20053;-62
2023/01/14 20:29:05;;;;;;;78.28;46.80;;;;;;;;;;21089380;28;20075;-63
2023/01/14 20:39:07;;;;;;;74.00;42.85;;;;;;;;;;21088680;28;20051;-61
2023/01/14 20:49:09;;;;;;;72.47;42.95;;;;;;;;;;21087868;28;20071;-61
2023/01/14 21:09:13;;;;;;;75.03;46.58;;;;;;;;;;21085071;28;20052;-62
2023/01/14 21:29:46;;;;;;;78.85;45.13;;;;;;;;;;21084491;28;20055;-59
2023/01/14 21:39:48;;;;;;;72.47;42.08;;;;;;;;;;21082419;28;20239;-61
2023/01/14 21:49:52;;;;;;;72.97;42.00;;;;;;;;;;21082076;28;20062;-60
2023/01/14 21:59:54;;;;;;;66.53;40.35;;;;;;;;;;21081998;28;20407;-60
2023/01/14 22:09:56;;;;;;;73.80;41.42;;;;;;;;;;21080709;28;20051;-60
2023/01/14 22:19:58;;;;;;;65.97;40.38;;;;;;;;;;21080371;28;20472;-61
2023/01/14 22:30:00;;;;;;;69.35;40.08;;;;;;;;;;21080192;28;20047;-61
2023/01/14 22:40:02;;;;;;;72.10;42.70;;;;;;;;;;21079435;28;20156;-61
2023/01/14 22:50:05;;;;;;;74.28;43.88;;;;;;;;;;21079200;28;20055;-64
2023/01/14 23:00:08;;;;;;;72.45;41.33;;;;;;;;;;21078585;28;20043;-63
2023/01/14 23:10:10;;;;;;;74.57;43.75;;;;;;;;;;21077704;28;20043;-64
2023/01/14 23:30:33;;;;;;;80.13;43.00;;;;;;;;;;21094544;28;20052;-61
2023/01/14 23:40:35;;;;;;;78.45;43.20;;;;;;;;;;21092322;28;20062;-63
2023/01/14 23:50:38;;;;;;;74.32;43.25;;;;;;;;;;21092159;28;20423;-64
